createdAt,value
2022-08-31T00:01:53.994Z,19.90
2022-08-31T00:04:20.891Z,19.90
2022-08-31T00:06:53.952Z,19.80
2022-08-31T00:09:21.351Z,19.80
2022-08-31T00:11:48.112Z,19.80
2022-08-31T00:14:15.962Z,19.80
2022-08-31T00:16:45.346Z,19.70
2022-08-31T00:19:12.619Z,19.80
2022-08-31T00:21:39.381Z,19.80
2022-08-31T00:24:06.447Z,19.90
2022-08-31T00:26:33.430Z,19.90
2022-08-31T00:29:00.277Z,19.90
2022-08-31T00:31:27.296Z,19.80
2022-08-31T00:33:54.669Z,19.80
2022-08-31T00:36:23.403Z,19.80
2022-08-31T00:38:51.928Z,19.80
2022-08-31T00:41:22.827Z,19.80
2022-08-31T00:43:56.668Z,19.90
2022-08-31T00:46:29.756Z,19.90
2022-08-31T00:49:14.005Z,19.90
2022-08-31T00:51:55.264Z,19.90
2022-08-31T00:54:30.446Z,19.80
2022-08-31T00:56:57.512Z,19.80
2022-08-31T00:59:25.508Z,19.80
2022-08-31T01:01:52.467Z,19.80
2022-08-31T01:04:19.530Z,19.80
2022-08-31T01:06:47.294Z,19.70
2022-08-31T01:09:14.656Z,19.60
2022-08-31T01:11:42.397Z,19.50
2022-08-31T01:14:10.943Z,19.50
2022-08-31T01:16:52.666Z,19.50
2022-08-31T01:19:38.768Z,19.50
2022-08-31T01:22:27.212Z,19.60
2022-08-31T01:24:56.165Z,19.60
2022-08-31T01:27:26.959Z,19.70
2022-08-31T01:29:53.872Z,19.70
2022-08-31T01:32:20.636Z,19.60
2022-08-31T01:34:47.484Z,19.40
2022-08-31T01:37:14.596Z,19.30
2022-08-31T01:39:42.360Z,19.30
2022-08-31T01:42:09.098Z,19.30
2022-08-31T01:44:35.881Z,19.30
2022-08-31T01:47:02.830Z,19.30
2022-08-31T01:49:29.642Z,19.40
2022-08-31T01:51:56.400Z,19.40
2022-08-31T01:54:25.142Z,19.30
2022-08-31T01:56:52.048Z,19.30
2022-08-31T01:59:22.161Z,19.20
2022-08-31T02:01:52.519Z,19.20
2022-08-31T02:04:23.178Z,19.20
2022-08-31T02:06:52.803Z,19.30
2022-08-31T02:09:20.510Z,19.30
2022-08-31T02:11:47.443Z,19.40
2022-08-31T02:14:14.359Z,19.40
2022-08-31T02:16:41.575Z,19.40
2022-08-31T02:19:08.907Z,19.30
2022-08-31T02:21:37.066Z,19.30
2022-08-31T02:24:04.987Z,19.30
2022-08-31T02:26:32.122Z,19.30
2022-08-31T02:28:58.951Z,19.20
2022-08-31T02:31:25.773Z,19.20
2022-08-31T02:33:52.574Z,19.10
2022-08-31T02:36:19.372Z,19.10
2022-08-31T02:38:46.597Z,19.00
2022-08-31T02:41:13.460Z,18.90
2022-08-31T02:43:40.244Z,18.90
2022-08-31T02:46:07.119Z,18.90
2022-08-31T02:48:35.182Z,19.00
2022-08-31T02:51:08.238Z,19.10
2022-08-31T02:53:36.208Z,19.10
2022-08-31T02:56:04.183Z,19.10
2022-08-31T02:58:31.007Z,19.10
2022-08-31T03:00:57.710Z,19.10
2022-08-31T03:03:24.494Z,19.20
2022-08-31T03:05:51.586Z,19.20
2022-08-31T03:08:18.399Z,19.10
2022-08-31T03:10:45.304Z,19.10
2022-08-31T03:13:12.174Z,19.10
2022-08-31T03:15:38.968Z,19.00
2022-08-31T03:18:06.904Z,19.00
2022-08-31T03:20:34.710Z,19.00
2022-08-31T03:23:01.791Z,19.00
2022-08-31T03:25:30.698Z,19.00
2022-08-31T03:27:57.445Z,19.00
2022-08-31T03:30:24.303Z,19.00
2022-08-31T03:32:54.295Z,19.10
2022-08-31T03:35:26.715Z,19.10
2022-08-31T03:37:53.687Z,19.20
2022-08-31T03:40:20.615Z,19.20
2022-08-31T03:42:47.516Z,19.20
2022-08-31T03:45:14.379Z,19.20
2022-08-31T03:47:44.921Z,19.20
2022-08-31T03:50:12.555Z,19.20
2022-08-31T03:52:39.766Z,19.10
2022-08-31T03:55:07.333Z,18.90
2022-08-31T03:57:35.755Z,18.80
2022-08-31T04:00:05.635Z,18.90
2022-08-31T04:02:37.393Z,18.90
2022-08-31T04:05:04.794Z,18.90
2022-08-31T04:07:42.361Z,18.90
2022-08-31T04:10:14.332Z,18.90
2022-08-31T04:12:41.375Z,18.90
2022-08-31T04:15:09.185Z,18.80
2022-08-31T04:17:36.617Z,18.90
2022-08-31T04:20:05.339Z,18.90
2022-08-31T04:22:32.135Z,18.90
2022-08-31T04:24:58.886Z,18.90
2022-08-31T04:27:25.595Z,18.80
2022-08-31T04:29:52.340Z,18.80
2022-08-31T04:32:19.901Z,18.70
2022-08-31T04:34:46.761Z,18.70
2022-08-31T04:37:14.685Z,18.70
2022-08-31T04:39:50.831Z,18.70
2022-08-31T04:42:19.024Z,18.60
2022-08-31T04:44:45.794Z,18.70
2022-08-31T04:47:12.605Z,18.70
2022-08-31T04:49:39.715Z,18.70
2022-08-31T04:52:06.746Z,18.80
2022-08-31T04:54:33.763Z,18.80
2022-08-31T04:57:00.716Z,18.90
2022-08-31T04:59:27.699Z,18.90
2022-08-31T05:01:55.401Z,18.80
2022-08-31T05:04:25.969Z,18.80
2022-08-31T05:06:52.764Z,18.70
2022-08-31T05:09:23.700Z,18.60
2022-08-31T05:11:52.444Z,18.70
2022-08-31T05:14:19.494Z,18.60
2022-08-31T05:16:46.418Z,18.60
2022-08-31T05:19:13.249Z,18.60
2022-08-31T05:21:42.137Z,18.60
2022-08-31T05:24:10.999Z,18.70
2022-08-31T05:26:42.134Z,18.70
2022-08-31T05:29:12.114Z,18.80
2022-08-31T05:31:39.049Z,18.90
2022-08-31T05:34:06.848Z,18.90
2022-08-31T05:36:34.691Z,18.70
2022-08-31T05:39:02.082Z,18.60
2022-08-31T05:41:30.154Z,18.60
2022-08-31T05:43:57.661Z,18.60
2022-08-31T05:46:24.475Z,18.60
2022-08-31T05:48:51.307Z,18.70
2022-08-31T05:51:19.364Z,18.70
2022-08-31T05:53:47.151Z,18.70
2022-08-31T05:56:20.290Z,18.80
2022-08-31T05:58:48.462Z,18.90
2022-08-31T06:01:30.785Z,18.90
2022-08-31T06:03:58.309Z,18.90
2022-08-31T06:06:25.473Z,19.00
2022-08-31T06:08:52.700Z,19.00
2022-08-31T06:11:22.013Z,18.90
2022-08-31T06:13:52.332Z,18.90
2022-08-31T06:16:20.658Z,19.00
2022-08-31T06:18:51.026Z,19.00
2022-08-31T06:21:24.038Z,19.00
2022-08-31T06:23:52.528Z,19.10
2022-08-31T06:26:21.777Z,19.20
2022-08-31T06:28:51.675Z,19.20
2022-08-31T06:31:35.836Z,19.20
2022-08-31T06:34:03.826Z,19.10
2022-08-31T06:36:32.097Z,19.10
2022-08-31T06:39:00.418Z,19.00
2022-08-31T06:41:35.684Z,19.20
2022-08-31T06:44:08.052Z,19.30
2022-08-31T06:46:36.722Z,19.30
2022-08-31T06:49:04.844Z,19.30
2022-08-31T06:51:37.681Z,19.40
2022-08-31T06:54:27.440Z,19.50
2022-08-31T06:56:54.088Z,19.50
2022-08-31T06:59:22.564Z,19.50
2022-08-31T07:01:51.153Z,19.50
2022-08-31T07:04:18.064Z,19.70
2022-08-31T07:06:45.382Z,19.70
2022-08-31T07:09:17.467Z,19.80
2022-08-31T07:11:47.054Z,19.80
2022-08-31T07:14:17.774Z,19.90
2022-08-31T07:16:45.939Z,19.90
2022-08-31T07:19:13.768Z,19.90
2022-08-31T07:21:43.518Z,19.70
2022-08-31T07:24:11.667Z,19.70
2022-08-31T07:26:42.401Z,19.80
2022-08-31T07:29:10.649Z,19.80
2022-08-31T07:31:46.368Z,19.90
2022-08-31T07:34:19.491Z,19.80
2022-08-31T07:37:06.439Z,19.80
2022-08-31T07:39:52.165Z,19.70
2022-08-31T07:42:25.466Z,19.80
2022-08-31T07:44:54.268Z,19.80
2022-08-31T07:47:22.803Z,19.80
2022-08-31T07:49:52.646Z,19.90
2022-08-31T07:52:25.777Z,19.70
2022-08-31T07:54:55.904Z,19.60
2022-08-31T07:57:25.925Z,19.70
2022-08-31T08:00:04.357Z,19.80
2022-08-31T08:02:32.502Z,19.70
2022-08-31T08:05:00.941Z,19.70
2022-08-31T08:07:28.038Z,19.80
2022-08-31T08:09:56.088Z,19.80
2022-08-31T08:12:24.509Z,19.80
2022-08-31T08:14:54.741Z,19.70
2022-08-31T08:17:21.461Z,19.70
2022-08-31T08:19:48.227Z,19.70
2022-08-31T08:22:22.465Z,19.70
2022-08-31T08:25:02.357Z,19.60
2022-08-31T08:27:29.744Z,19.60
2022-08-31T08:29:56.721Z,19.60
2022-08-31T08:32:23.699Z,19.60
2022-08-31T08:34:50.455Z,19.70
2022-08-31T08:37:17.353Z,19.70
2022-08-31T08:39:44.384Z,19.70
2022-08-31T08:42:13.582Z,19.70
2022-08-31T08:44:41.166Z,19.70
2022-08-31T08:47:15.272Z,19.60
2022-08-31T08:49:54.333Z,19.60
2022-08-31T08:52:32.310Z,19.70
2022-08-31T08:55:10.339Z,19.80
2022-08-31T08:57:41.286Z,20.00
2022-08-31T09:00:15.983Z,20.10
2022-08-31T09:02:58.119Z,20.10
2022-08-31T09:05:53.665Z,20.10
2022-08-31T09:08:42.528Z,20.00
2022-08-31T09:11:38.620Z,19.90
2022-08-31T09:14:48.139Z,19.90
2022-08-31T09:17:25.152Z,19.80
2022-08-31T09:20:04.356Z,19.80
2022-08-31T09:22:33.772Z,19.80
2022-08-31T09:25:02.030Z,19.80
2022-08-31T09:27:45.802Z,19.90
2022-08-31T09:30:32.746Z,20.00
2022-08-31T09:32:59.523Z,20.00
2022-08-31T09:35:40.517Z,20.00
2022-08-31T09:38:11.129Z,20.10
2022-08-31T09:40:53.115Z,20.10
2022-08-31T09:43:25.450Z,20.20
2022-08-31T09:46:11.653Z,20.30
2022-08-31T09:48:44.083Z,20.30
2022-08-31T09:51:22.519Z,20.30
2022-08-31T09:54:10.311Z,20.30
2022-08-31T09:56:57.945Z,20.30
2022-08-31T09:59:45.957Z,20.30
2022-08-31T10:02:26.230Z,20.30
2022-08-31T10:05:03.807Z,20.20
2022-08-31T10:07:52.056Z,20.20
2022-08-31T10:10:33.310Z,20.20
2022-08-31T10:13:18.099Z,20.10
2022-08-31T10:15:52.996Z,20.10
2022-08-31T10:18:39.579Z,20.10
2022-08-31T10:21:08.514Z,20.10
2022-08-31T10:23:53.997Z,20.00
2022-08-31T10:26:31.629Z,20.00
2022-08-31T10:29:05.386Z,20.00
2022-08-31T10:31:48.369Z,20.00
2022-08-31T10:34:52.318Z,20.10
2022-08-31T10:37:34.026Z,20.20
2022-08-31T10:40:37.949Z,20.20
2022-08-31T10:43:14.051Z,20.20
2022-08-31T10:45:45.361Z,20.10
2022-08-31T10:48:13.119Z,20.10
2022-08-31T10:51:05.965Z,20.00
2022-08-31T10:53:34.952Z,20.00
2022-08-31T10:56:19.059Z,20.00
2022-08-31T10:59:07.570Z,20.00
2022-08-31T11:01:52.989Z,19.90
2022-08-31T11:04:42.566Z,19.90
2022-08-31T11:07:25.074Z,19.80
2022-08-31T11:10:05.404Z,19.80
2022-08-31T11:12:42.471Z,19.70
2022-08-31T11:15:17.740Z,19.70
2022-08-31T11:18:23.313Z,19.70
2022-08-31T11:21:09.050Z,19.80
2022-08-31T11:23:50.335Z,19.80
2022-08-31T11:27:21.056Z,19.70
2022-08-31T11:30:02.683Z,19.70
2022-08-31T11:32:47.361Z,19.80
2022-08-31T11:35:15.684Z,19.70
2022-08-31T11:37:52.749Z,19.60
2022-08-31T11:40:43.984Z,19.60
2022-08-31T11:43:32.852Z,19.50
2022-08-31T11:46:26.916Z,19.50
2022-08-31T11:48:54.623Z,19.50
2022-08-31T11:51:45.124Z,19.50
2022-08-31T11:54:15.812Z,19.40
2022-08-31T11:56:47.325Z,19.40
2022-08-31T11:59:26.348Z,19.40
2022-08-31T12:01:58.326Z,19.40
2022-08-31T12:04:43.549Z,19.20
2022-08-31T12:07:13.903Z,19.00
2022-08-31T12:10:02.724Z,18.90
2022-08-31T12:12:48.343Z,18.80
2022-08-31T12:15:33.827Z,18.80
2022-08-31T12:18:30.118Z,18.80
2022-08-31T12:21:18.027Z,18.80
2022-08-31T12:24:06.467Z,18.70
2022-08-31T12:27:10.604Z,18.60
2022-08-31T12:29:40.415Z,18.50
2022-08-31T12:32:29.520Z,18.40
2022-08-31T12:34:56.289Z,18.30
2022-08-31T12:37:29.515Z,18.20
2022-08-31T12:40:27.068Z,18.10
2022-08-31T12:42:53.903Z,18.20
2022-08-31T12:45:42.156Z,18.20
2022-08-31T12:48:33.677Z,18.30
2022-08-31T12:51:14.285Z,18.40
2022-08-31T12:54:18.641Z,18.50
2022-08-31T12:57:03.755Z,18.50
2022-08-31T12:59:59.301Z,18.50
2022-08-31T13:02:23.985Z,18.40
2022-08-31T13:04:51.254Z,18.30
2022-08-31T13:07:23.710Z,18.20
2022-08-31T13:10:16.659Z,18.10
2022-08-31T13:12:55.623Z,18.10
2022-08-31T13:15:44.511Z,18.10
2022-08-31T13:18:14.432Z,18.20
2022-08-31T13:20:46.981Z,18.10
2022-08-31T13:23:23.680Z,18.10
2022-08-31T13:26:15.106Z,18.20
2022-08-31T13:28:42.247Z,18.30
2022-08-31T13:31:09.928Z,18.40
2022-08-31T13:33:40.673Z,18.40
2022-08-31T13:36:32.250Z,18.60
2022-08-31T13:39:12.395Z,18.50
2022-08-31T13:42:08.646Z,18.50
2022-08-31T13:44:39.809Z,18.40
2022-08-31T13:47:27.519Z,18.40
2022-08-31T13:50:12.845Z,18.60
2022-08-31T13:53:22.552Z,18.70
2022-08-31T13:55:43.909Z,18.70
2022-08-31T13:58:32.231Z,18.90
2022-08-31T14:01:25.111Z,19.00
2022-08-31T14:03:59.608Z,19.20
2022-08-31T14:06:29.656Z,19.30
2022-08-31T14:09:18.010Z,19.50
2022-08-31T14:12:03.702Z,19.30
2022-08-31T14:14:39.936Z,19.20
2022-08-31T14:17:15.365Z,19.40
2022-08-31T14:19:44.008Z,19.30
2022-08-31T14:22:29.007Z,19.30
2022-08-31T14:24:56.155Z,19.50
2022-08-31T14:27:23.981Z,19.50
2022-08-31T14:29:52.290Z,19.70
2022-08-31T14:32:20.123Z,19.60
2022-08-31T14:34:51.166Z,19.50
2022-08-31T14:37:30.012Z,19.50
2022-08-31T14:40:07.588Z,19.80
2022-08-31T14:42:37.999Z,19.90
2022-08-31T14:45:18.339Z,20.00
2022-08-31T14:48:12.638Z,19.80
2022-08-31T14:50:39.527Z,20.10
2022-08-31T14:53:11.280Z,20.00
2022-08-31T14:55:41.314Z,19.80
2022-08-31T14:58:14.248Z,19.80
2022-08-31T15:00:51.197Z,19.60
2022-08-31T15:03:24.334Z,19.50
2022-08-31T15:05:51.299Z,19.70
2022-08-31T15:08:23.254Z,19.90
2022-08-31T15:11:06.456Z,19.90
2022-08-31T15:13:34.082Z,20.10
2022-08-31T15:16:05.089Z,20.10
2022-08-31T15:18:35.960Z,19.90
2022-08-31T15:21:05.351Z,19.80
2022-08-31T15:23:33.659Z,19.50
2022-08-31T15:26:06.624Z,19.60
2022-08-31T15:28:37.428Z,19.70
2022-08-31T15:31:20.005Z,19.50
2022-08-31T15:33:49.255Z,19.40
2022-08-31T15:36:18.400Z,19.20
2022-08-31T15:38:45.714Z,19.20
2022-08-31T15:41:13.337Z,19.10
2022-08-31T15:43:44.215Z,19.20
2022-08-31T15:46:14.174Z,19.20
2022-08-31T15:48:47.464Z,19.20
2022-08-31T15:51:23.562Z,19.30
2022-08-31T15:54:18.521Z,19.30
2022-08-31T15:56:40.955Z,19.20
2022-08-31T15:59:10.184Z,19.00
2022-08-31T16:01:38.160Z,19.10
2022-08-31T16:04:05.166Z,19.00
2022-08-31T16:06:32.843Z,19.10
2022-08-31T16:09:01.400Z,19.10
2022-08-31T16:11:32.163Z,19.10
2022-08-31T16:13:59.787Z,19.10
2022-08-31T16:16:33.440Z,19.10
2022-08-31T16:19:04.377Z,19.30
2022-08-31T16:21:34.575Z,19.50
2022-08-31T16:24:04.245Z,19.70
2022-08-31T16:26:37.828Z,19.70
2022-08-31T16:29:08.575Z,19.70
2022-08-31T16:31:36.326Z,19.40
2022-08-31T16:34:03.313Z,19.40
2022-08-31T16:36:30.527Z,19.50
2022-08-31T16:38:59.861Z,19.50
2022-08-31T16:41:30.623Z,19.50
2022-08-31T16:44:19.167Z,19.40
2022-08-31T16:46:47.328Z,19.20
2022-08-31T16:49:32.926Z,19.30
2022-08-31T16:52:03.532Z,19.20
2022-08-31T16:54:30.681Z,19.10
2022-08-31T16:56:57.933Z,19.00
2022-08-31T16:59:26.581Z,18.80
2022-08-31T17:01:54.889Z,18.70
2022-08-31T17:04:48.113Z,18.60
2022-08-31T17:07:12.951Z,18.60
2022-08-31T17:09:40.821Z,18.50
2022-08-31T17:12:13.300Z,18.40
2022-08-31T17:14:51.442Z,18.40
2022-08-31T17:17:25.851Z,18.30
2022-08-31T17:19:56.188Z,18.30
2022-08-31T17:22:31.778Z,18.30
2022-08-31T17:25:03.149Z,18.20
2022-08-31T17:27:33.268Z,18.10
2022-08-31T17:30:01.102Z,18.10
2022-08-31T17:32:28.668Z,18.10
2022-08-31T17:34:56.835Z,18.10
2022-08-31T17:37:32.868Z,18.10
2022-08-31T17:40:00.500Z,18.20
2022-08-31T17:42:28.191Z,18.20
2022-08-31T17:44:56.695Z,18.10
2022-08-31T17:47:25.345Z,18.20
2022-08-31T17:49:52.869Z,18.20
2022-08-31T17:52:21.832Z,18.30
2022-08-31T17:54:51.168Z,18.30
2022-08-31T17:57:21.318Z,18.30
2022-08-31T17:59:51.223Z,18.20
2022-08-31T18:02:22.052Z,18.10
2022-08-31T18:04:49.354Z,18.10
2022-08-31T18:07:16.616Z,18.20
2022-08-31T18:09:45.638Z,18.10
2022-08-31T18:12:14.338Z,18.20
2022-08-31T18:14:41.689Z,18.20
2022-08-31T18:17:10.269Z,18.00
2022-08-31T18:19:37.911Z,18.00
2022-08-31T18:22:05.199Z,17.90
2022-08-31T18:24:35.516Z,17.90
2022-08-31T18:27:07.140Z,17.80
2022-08-31T18:29:35.928Z,17.70
2022-08-31T18:32:05.304Z,17.70
2022-08-31T18:34:34.953Z,17.80
2022-08-31T18:37:02.393Z,18.00
2022-08-31T18:39:51.102Z,18.00
2022-08-31T18:42:37.547Z,18.00
2022-08-31T18:45:19.178Z,18.10
2022-08-31T18:50:45.973Z,18.20
2022-08-31T18:53:28.673Z,18.10
2022-08-31T18:55:59.635Z,18.10
2022-08-31T18:58:26.638Z,18.10
2022-08-31T19:00:57.311Z,18.10
2022-08-31T19:03:25.790Z,18.00
2022-08-31T19:05:52.648Z,18.00
2022-08-31T19:08:19.545Z,18.00
2022-08-31T19:10:49.220Z,18.00
2022-08-31T19:13:16.286Z,18.00
2022-08-31T19:15:43.918Z,18.00
2022-08-31T19:18:10.792Z,18.00
2022-08-31T19:20:39.340Z,18.10
2022-08-31T19:23:06.271Z,18.20
2022-08-31T19:25:33.609Z,18.30
2022-08-31T19:28:07.690Z,18.40
2022-08-31T19:30:35.527Z,18.30
2022-08-31T19:33:08.501Z,18.20
2022-08-31T19:35:36.437Z,18.10
2022-08-31T19:38:03.459Z,18.10
2022-08-31T19:40:38.077Z,18.10
2022-08-31T19:45:54.000Z,18.00
2022-08-31T19:48:23.890Z,17.90
2022-08-31T19:50:51.707Z,17.90
2022-08-31T19:53:21.934Z,17.90
2022-08-31T19:55:53.508Z,17.90
2022-08-31T19:58:25.511Z,17.80
2022-08-31T20:01:00.873Z,17.90
2022-08-31T20:03:28.212Z,17.90
2022-08-31T20:05:55.146Z,17.80
2022-08-31T20:08:21.971Z,17.70
2022-08-31T20:10:48.917Z,17.60
2022-08-31T20:13:15.819Z,17.60
2022-08-31T20:15:44.817Z,17.60
2022-08-31T20:18:12.906Z,17.70
2022-08-31T20:20:48.457Z,17.50
2022-08-31T20:23:18.075Z,17.40
2022-08-31T20:25:47.800Z,17.40
2022-08-31T20:28:15.169Z,17.40
2022-08-31T20:30:43.819Z,17.50
2022-08-31T20:33:11.625Z,17.40
2022-08-31T20:35:47.756Z,17.30
2022-08-31T20:38:18.861Z,17.30
2022-08-31T20:40:49.612Z,17.30
2022-08-31T20:43:17.315Z,17.30
2022-08-31T20:45:44.190Z,17.40
2022-08-31T20:48:29.806Z,17.40
2022-08-31T20:50:57.336Z,17.40
2022-08-31T20:53:42.551Z,17.40
2022-08-31T20:56:17.644Z,17.40
2022-08-31T20:58:46.276Z,17.40
2022-08-31T21:01:14.067Z,17.50
2022-08-31T21:03:41.547Z,17.50
2022-08-31T21:06:11.619Z,17.40
2022-08-31T21:08:39.996Z,17.30
2022-08-31T21:11:18.929Z,17.40
2022-08-31T21:13:46.850Z,17.40
2022-08-31T21:16:19.495Z,17.30
2022-08-31T21:18:49.915Z,17.40
2022-08-31T21:21:17.722Z,17.50
2022-08-31T21:23:46.151Z,17.30
2022-08-31T21:26:20.027Z,17.30
2022-08-31T21:28:50.482Z,17.20
2022-08-31T21:31:28.736Z,17.30
2022-08-31T21:34:02.031Z,17.30
2022-08-31T21:36:33.634Z,17.30
2022-08-31T21:39:00.740Z,17.30
2022-08-31T21:41:28.719Z,17.30
2022-08-31T21:43:56.914Z,17.20
2022-08-31T21:46:26.348Z,17.20
2022-08-31T21:48:55.388Z,17.20
2022-08-31T21:51:28.654Z,17.30
2022-08-31T21:53:59.574Z,17.30
2022-08-31T21:56:29.117Z,17.30
2022-08-31T21:59:00.473Z,17.30
2022-08-31T22:01:29.566Z,17.20
2022-08-31T22:03:59.194Z,17.10
2022-08-31T22:06:31.152Z,17.00
2022-08-31T22:09:02.299Z,17.00
2022-08-31T22:11:32.976Z,17.00
2022-08-31T22:14:00.079Z,17.20
2022-08-31T22:16:27.684Z,17.10
2022-08-31T22:19:01.374Z,17.00
2022-08-31T22:21:34.598Z,17.00
2022-08-31T22:24:06.998Z,17.00
2022-08-31T22:26:39.375Z,17.00
2022-08-31T22:29:08.371Z,16.90
2022-08-31T22:31:37.344Z,16.80
2022-08-31T22:34:06.326Z,16.90
2022-08-31T22:36:34.553Z,16.90
2022-08-31T22:39:10.756Z,16.90
2022-08-31T22:41:40.393Z,16.90
2022-08-31T22:44:10.070Z,16.90
2022-08-31T22:46:39.774Z,16.90
2022-08-31T22:49:10.025Z,16.80
2022-08-31T22:51:40.579Z,16.80
2022-08-31T22:54:08.949Z,16.90
2022-08-31T22:56:38.419Z,16.90
2022-08-31T22:59:09.343Z,16.90
2022-08-31T23:01:39.153Z,16.80
2022-08-31T23:04:08.751Z,16.80
2022-08-31T23:06:37.038Z,16.80
2022-08-31T23:09:06.893Z,16.80
2022-08-31T23:11:33.992Z,16.90
2022-08-31T23:14:05.307Z,17.00
2022-08-31T23:16:37.436Z,16.90
2022-08-31T23:19:12.115Z,16.80
2022-08-31T23:21:46.723Z,16.70
2022-08-31T23:24:28.590Z,16.80
2022-08-31T23:27:01.670Z,16.80
2022-08-31T23:29:45.621Z,16.70
2022-08-31T23:32:13.957Z,16.70
2022-08-31T23:34:41.937Z,16.80
2022-08-31T23:37:10.374Z,16.80
2022-08-31T23:39:40.459Z,16.80
2022-08-31T23:42:12.010Z,16.80
2022-08-31T23:44:43.833Z,16.70
2022-08-31T23:47:13.826Z,16.70
2022-08-31T23:49:42.272Z,16.70
2022-08-31T23:52:11.858Z,16.80
2022-08-31T23:54:40.127Z,16.80
2022-08-31T23:57:08.494Z,16.80
2022-08-31T23:59:52.926Z,16.80
